Time;durP1;ratioP1;P1;durP2;ratioP2;P2;SDS_P1;SDS_P2;PMS_P1;PMS_P2;Temp;Humidity;BMP_temperature;BMP_pressure;BME280_temperature;BME280_humidity;BME280_pressure;Samples;Min_cycle;Max_cycle;Signal;HPM_P1;HPM_P2
2023/12/15 00:01:23;;;;;;;;;10.00;10.00;;;;;;;;5070655;28;10424;-81
2023/12/15 00:03:53;;;;;;;;;14.75;11.50;;;;;;;;5070668;28;11448;-80
2023/12/15 00:06:20;;;;;;;;;12.75;10.50;;;;;;;;5060991;28;10702;-80
2023/12/15 00:08:50;;;;;;;;;12.00;12.00;;;;;;;;5070558;28;10690;-81
2023/12/15 00:11:17;;;;;;;;;11.00;11.00;;;;;;;;5054873;28;10555;-80
2023/12/15 00:13:44;;;;;;;;;12.75;10.25;;;;;;;;5055507;28;11378;-80
2023/12/15 00:16:12;;;;;;;;;15.00;12.50;;;;;;;;5053171;28;10561;-80
2023/12/15 00:18:39;;;;;;;;;11.75;11.75;;;;;;;;5057080;28;10583;-81
2023/12/15 00:21:07;;;;;;;;;11.25;11.25;;;;;;;;5071589;28;11317;-80
2023/12/15 00:23:34;;;;;;;;;15.00;15.00;;;;;;;;5070257;28;11380;-80
2023/12/15 00:26:03;;;;;;;;;12.25;12.25;;;;;;;;5063018;28;10615;-81
2023/12/15 00:28:31;;;;;;;;;14.25;14.25;;;;;;;;5056017;28;11397;-81
2023/12/15 00:30:58;;;;;;;;;14.50;14.50;;;;;;;;5070850;28;10608;-79
2023/12/15 00:33:25;;;;;;;;;14.50;14.25;;;;;;;;5069877;28;10511;-81
2023/12/15 00:35:52;;;;;;;;;12.25;12.25;;;;;;;;5070571;28;10724;-81
2023/12/15 00:38:20;;;;;;;;;17.25;15.75;;;;;;;;5069955;28;10680;-80
2023/12/15 00:40:47;;;;;;;;;16.00;16.00;;;;;;;;5069121;28;10673;-81
2023/12/15 00:43:15;;;;;;;;;19.75;15.75;;;;;;;;5069081;28;10776;-81
2023/12/15 00:45:43;;;;;;;;;17.00;15.25;;;;;;;;5069861;28;10736;-81
2023/12/15 00:48:10;;;;;;;;;14.25;14.25;;;;;;;;5070585;28;10705;-81
2023/12/15 00:50:38;;;;;;;;;15.50;15.00;;;;;;;;5054854;28;10785;-82
2023/12/15 00:53:05;;;;;;;;;19.00;15.75;;;;;;;;5068596;28;10696;-81
2023/12/15 00:55:32;;;;;;;;;15.25;15.25;;;;;;;;5069611;28;10839;-80
2023/12/15 00:57:59;;;;;;;;;16.00;16.00;;;;;;;;5070499;28;10673;-81
2023/12/15 01:00:27;;;;;;;;;17.50;16.00;;;;;;;;5070530;28;10781;-80
2023/12/15 01:02:54;;;;;;;;;17.50;14.25;;;;;;;;5060440;28;10735;-81
2023/12/15 01:05:21;;;;;;;;;17.75;15.00;;;;;;;;5059994;28;10705;-82
2023/12/15 01:07:49;;;;;;;;;16.75;14.75;;;;;;;;5069673;28;10726;-81
2023/12/15 01:10:16;;;;;;;;;18.00;16.25;;;;;;;;5067197;28;10639;-82
2023/12/15 01:12:43;;;;;;;;;15.75;15.75;;;;;;;;5069500;28;10831;-81
2023/12/15 01:15:11;;;;;;;;;13.75;11.25;;;;;;;;5073739;28;10918;-82
2023/12/15 01:17:40;;;;;;;;;17.25;16.00;;;;;;;;5074040;28;10898;-81
2023/12/15 01:20:10;;;;;;;;;18.75;16.00;;;;;;;;5074401;28;10766;-81
2023/12/15 01:22:37;;;;;;;;;14.25;14.25;;;;;;;;5061322;28;10906;-81
2023/12/15 01:25:05;;;;;;;;;23.25;18.25;;;;;;;;5063210;28;11618;-81
2023/12/15 01:27:32;;;;;;;;;17.75;15.75;;;;;;;;5065037;28;11542;-81
2023/12/15 01:30:00;;;;;;;;;17.25;15.25;;;;;;;;5063351;28;10710;-81
2023/12/15 01:32:27;;;;;;;;;19.50;16.25;;;;;;;;5062221;28;10657;-80
2023/12/15 01:34:55;;;;;;;;;16.75;16.75;;;;;;;;5059159;28;10705;-80
2023/12/15 01:37:25;;;;;;;;;19.25;16.50;;;;;;;;5073929;28;10762;-81
2023/12/15 01:39:53;;;;;;;;;17.25;17.25;;;;;;;;5060201;28;10927;-80
2023/12/15 01:42:20;;;;;;;;;22.50;16.50;;;;;;;;5068844;28;10786;-80
2023/12/15 01:44:47;;;;;;;;;17.00;17.00;;;;;;;;5069780;28;10796;-80
2023/12/15 01:47:18;;;;;;;;;15.25;15.25;;;;;;;;5055712;28;10719;-81
2023/12/15 01:49:45;;;;;;;;;17.00;14.00;;;;;;;;5066362;28;10757;-81
2023/12/15 01:52:14;;;;;;;;;9.00;9.00;;;;;;;;5067010;28;10755;-80
2023/12/15 01:54:43;;;;;;;;;18.00;18.00;;;;;;;;5067570;28;11523;-82
2023/12/15 01:57:10;;;;;;;;;17.25;15.25;;;;;;;;5070859;28;10923;-81
2023/12/15 01:59:44;;;;;;;;;15.50;14.75;;;;;;;;5090520;28;10829;-81
2023/12/15 02:02:11;;;;;;;;;22.50;21.00;;;;;;;;5081515;28;10880;-81
2023/12/15 02:04:39;;;;;;;;;22.75;18.50;;;;;;;;5062139;28;11646;-82
2023/12/15 02:07:06;;;;;;;;;13.75;11.00;;;;;;;;5066826;28;10825;-81
2023/12/15 02:09:35;;;;;;;;;14.25;14.25;;;;;;;;5064136;28;10729;-82
2023/12/15 02:12:02;;;;;;;;;20.25;19.75;;;;;;;;5065035;28;10739;-81
2023/12/15 02:14:30;;;;;;;;;18.50;17.50;;;;;;;;5061178;28;11006;-81
2023/12/15 02:16:57;;;;;;;;;25.00;23.00;;;;;;;;5066102;28;11450;-81
2023/12/15 02:19:24;;;;;;;;;22.75;19.75;;;;;;;;5054165;28;10893;-81
2023/12/15 02:21:51;;;;;;;;;22.25;19.25;;;;;;;;5069302;28;10728;-81
2023/12/15 02:24:20;;;;;;;;;20.25;20.00;;;;;;;;5069356;28;10861;-81
2023/12/15 02:26:47;;;;;;;;;25.25;19.75;;;;;;;;5060631;28;10812;-80
2023/12/15 02:29:17;;;;;;;;;20.75;20.75;;;;;;;;5069920;28;10870;-81
2023/12/15 02:31:45;;;;;;;;;23.00;21.00;;;;;;;;5063571;28;10744;-81
2023/12/15 02:34:13;;;;;;;;;19.75;19.75;;;;;;;;5055139;28;10895;-81
2023/12/15 02:36:40;;;;;;;;;18.00;18.00;;;;;;;;5060278;28;10908;-81
2023/12/15 02:39:08;;;;;;;;;20.75;20.75;;;;;;;;5055992;28;10656;-81
2023/12/15 02:41:37;;;;;;;;;17.00;17.00;;;;;;;;5068569;28;10654;-81
2023/12/15 02:44:05;;;;;;;;;21.75;18.50;;;;;;;;5068476;28;10707;-80
2023/12/15 02:46:32;;;;;;;;;26.25;24.50;;;;;;;;5068139;28;10649;-82
2023/12/15 02:49:00;;;;;;;;;19.00;18.00;;;;;;;;5065638;28;10644;-82
2023/12/15 02:51:28;;;;;;;;;26.75;23.00;;;;;;;;5068466;28;10682;-83
2023/12/15 02:53:55;;;;;;;;;17.25;14.00;;;;;;;;5068852;28;10662;-83
2023/12/15 02:56:25;;;;;;;;;19.50;19.50;;;;;;;;5068137;28;10535;-82
2023/12/15 02:58:54;;;;;;;;;25.25;21.75;;;;;;;;5069351;28;10689;-82
2023/12/15 03:01:24;;;;;;;;;17.50;16.00;;;;;;;;5069581;28;10730;-82
2023/12/15 03:03:51;;;;;;;;;19.00;17.50;;;;;;;;5071304;28;10510;-81
2023/12/15 03:06:19;;;;;;;;;18.50;17.50;;;;;;;;5072219;28;10520;-81
2023/12/15 03:08:46;;;;;;;;;18.50;15.25;;;;;;;;5073895;28;10485;-81
2023/12/15 03:11:13;;;;;;;;;22.50;19.25;;;;;;;;5059190;28;10678;-81
2023/12/15 03:13:41;;;;;;;;;19.75;18.25;;;;;;;;5066734;28;10401;-81
2023/12/15 03:16:11;;;;;;;;;28.50;24.00;;;;;;;;5062018;28;10352;-82
2023/12/15 03:18:39;;;;;;;;;23.00;20.25;;;;;;;;5065847;28;10523;-81
2023/12/15 03:21:07;;;;;;;;;23.50;21.25;;;;;;;;5061268;28;10361;-81
2023/12/15 03:23:34;;;;;;;;;18.75;18.00;;;;;;;;5067696;28;10366;-81
2023/12/15 03:26:01;;;;;;;;;23.75;21.50;;;;;;;;5058445;28;10489;-81
2023/12/15 03:28:29;;;;;;;;;21.25;21.25;;;;;;;;5072047;28;10490;-81
2023/12/15 03:30:56;;;;;;;;;28.50;22.00;;;;;;;;5070155;28;10343;-80
2023/12/15 03:33:25;;;;;;;;;20.75;19.25;;;;;;;;5061288;28;10511;-81
2023/12/15 03:35:53;;;;;;;;;21.75;18.00;;;;;;;;5067888;28;10352;-82
2023/12/15 03:38:21;;;;;;;;;17.25;17.25;;;;;;;;5058675;28;10546;-81
2023/12/15 03:40:48;;;;;;;;;20.50;20.50;;;;;;;;5065026;28;10241;-81
2023/12/15 03:43:18;;;;;;;;;27.00;25.00;;;;;;;;5067946;28;10345;-81
2023/12/15 03:45:45;;;;;;;;;22.25;19.75;;;;;;;;5066444;28;10375;-82
2023/12/15 03:48:13;;;;;;;;;20.25;20.25;;;;;;;;5067805;28;10375;-82
2023/12/15 03:50:41;;;;;;;;;20.25;20.25;;;;;;;;5064522;28;10453;-82
2023/12/15 03:53:09;;;;;;;;;20.25;17.00;;;;;;;;5067695;28;10450;-83
2023/12/15 03:55:36;;;;;;;;;23.25;23.00;;;;;;;;5067500;28;10212;-82
2023/12/15 03:58:03;;;;;;;;;20.00;20.00;;;;;;;;5067460;28;10354;-82
2023/12/15 04:00:30;;;;;;;;;24.50;23.50;;;;;;;;5066721;28;10267;-80
2023/12/15 04:02:58;;;;;;;;;18.75;16.75;;;;;;;;5067713;28;10519;-80
2023/12/15 04:05:25;;;;;;;;;26.75;25.25;;;;;;;;5067931;28;10540;-81
2023/12/15 04:07:54;;;;;;;;;23.25;21.25;;;;;;;;5067195;28;10694;-80
2023/12/15 04:10:21;;;;;;;;;27.75;17.25;;;;;;;;5064841;28;10389;-82
2023/12/15 04:12:48;;;;;;;;;26.00;21.75;;;;;;;;5064505;28;10503;-81
2023/12/15 04:15:18;;;;;;;;;26.50;24.00;;;;;;;;5066762;28;10672;-81
2023/12/15 04:17:47;;;;;;;;;21.25;21.25;;;;;;;;5053571;28;10656;-81
2023/12/15 04:20:14;;;;;;;;;21.50;21.50;;;;;;;;5053145;28;10831;-81
2023/12/15 04:22:42;;;;;;;;;22.00;18.75;;;;;;;;5071095;28;10690;-81
2023/12/15 04:25:11;;;;;;;;;21.50;20.50;;;;;;;;5071126;28;10660;-81
2023/12/15 04:27:39;;;;;;;;;20.00;20.00;;;;;;;;5071826;28;10601;-80
2023/12/15 04:30:07;;;;;;;;;25.50;23.50;;;;;;;;5076833;28;10506;-79
2023/12/15 04:32:34;;;;;;;;;19.50;18.00;;;;;;;;5093790;28;10424;-79
2023/12/15 04:35:02;;;;;;;;;21.25;18.75;;;;;;;;5072479;28;10673;-81
2023/12/15 04:37:29;;;;;;;;;22.25;21.50;;;;;;;;5067693;28;10572;-81
2023/12/15 04:39:56;;;;;;;;;23.50;22.00;;;;;;;;5061982;28;10528;-81
2023/12/15 04:42:25;;;;;;;;;22.75;20.00;;;;;;;;5069134;28;10623;-81
2023/12/15 04:44:52;;;;;;;;;21.75;18.00;;;;;;;;5070179;28;10413;-80
2023/12/15 04:47:19;;;;;;;;;22.75;19.25;;;;;;;;5052982;28;10353;-81
2023/12/15 04:49:47;;;;;;;;;22.50;19.25;;;;;;;;5070131;28;10681;-80
2023/12/15 04:52:14;;;;;;;;;25.25;24.00;;;;;;;;5071133;28;10690;-81
2023/12/15 04:54:41;;;;;;;;;25.00;17.75;;;;;;;;5073017;28;10618;-81
2023/12/15 04:57:08;;;;;;;;;19.25;19.25;;;;;;;;5075169;28;10703;-81
2023/12/15 04:59:41;;;;;;;;;22.75;22.25;;;;;;;;5073981;28;10661;-81
2023/12/15 05:02:08;;;;;;;;;27.75;24.50;;;;;;;;5063738;28;10553;-81
2023/12/15 05:04:35;;;;;;;;;23.50;21.50;;;;;;;;5076078;28;10836;-81
2023/12/15 05:07:04;;;;;;;;;22.00;18.25;;;;;;;;5074837;28;10579;-85
2023/12/15 05:09:31;;;;;;;;;24.00;21.75;;;;;;;;5069940;28;10430;-82
2023/12/15 05:11:58;;;;;;;;;19.00;18.75;;;;;;;;5054136;28;10459;-83
2023/12/15 05:14:26;;;;;;;;;20.00;17.50;;;;;;;;5065587;28;10409;-83
2023/12/15 05:16:54;;;;;;;;;26.25;21.25;;;;;;;;5071677;28;10320;-81
2023/12/15 05:19:22;;;;;;;;;24.00;20.50;;;;;;;;5073330;28;10417;-80
2023/12/15 05:21:49;;;;;;;;;16.50;16.00;;;;;;;;5071320;28;10346;-80
2023/12/15 05:24:19;;;;;;;;;27.75;24.75;;;;;;;;5068905;28;11129;-81
2023/12/15 05:26:46;;;;;;;;;22.50;20.75;;;;;;;;5057867;28;10252;-80
2023/12/15 05:29:14;;;;;;;;;23.50;21.50;;;;;;;;5056987;28;10328;-81
2023/12/15 05:31:44;;;;;;;;;22.50;18.00;;;;;;;;5061495;28;10214;-80
2023/12/15 05:34:12;;;;;;;;;27.25;23.25;;;;;;;;5063396;28;10920;-81
2023/12/15 05:36:40;;;;;;;;;24.00;24.00;;;;;;;;5058833;28;10119;-80
2023/12/15 05:39:10;;;;;;;;;77.50;60.25;;;;;;;;5055739;28;10358;-79
2023/12/15 05:41:42;;;;;;;;;55.25;43.25;;;;;;;;5068793;28;11646;-81
2023/12/15 05:44:10;;;;;;;;;32.00;28.00;;;;;;;;5067019;28;11523;-81
2023/12/15 05:46:47;;;;;;;;;34.75;31.75;;;;;;;;5069031;28;10593;-82
2023/12/15 05:49:20;;;;;;;;;25.00;24.00;;;;;;;;5067551;28;10677;-79
2023/12/15 05:51:51;;;;;;;;;27.75;26.50;;;;;;;;5067029;28;10517;-82
2023/12/15 05:54:18;;;;;;;;;30.50;27.50;;;;;;;;5069083;28;10521;-80
2023/12/15 05:56:48;;;;;;;;;34.75;30.75;;;;;;;;5068363;28;11425;-81
2023/12/15 05:59:18;;;;;;;;;32.00;29.75;;;;;;;;5068786;28;10723;-80
2023/12/15 06:01:45;;;;;;;;;35.50;33.25;;;;;;;;5064595;28;10791;-81
2023/12/15 06:04:21;;;;;;;;;24.75;21.75;;;;;;;;5068944;28;10584;-80
2023/12/15 06:06:51;;;;;;;;;21.75;21.75;;;;;;;;5066606;28;10489;-81
2023/12/15 06:09:19;;;;;;;;;21.50;21.00;;;;;;;;5068987;28;10426;-81
2023/12/15 06:11:50;;;;;;;;;26.75;22.75;;;;;;;;5068114;28;10436;-82
2023/12/15 06:14:21;;;;;;;;;17.50;15.25;;;;;;;;5065353;28;10419;-73
2023/12/15 06:16:48;;;;;;;;;22.50;21.25;;;;;;;;5067295;28;10606;-77
2023/12/15 06:19:21;;;;;;;;;21.50;19.75;;;;;;;;5068126;28;11186;-78
2023/12/15 06:21:51;;;;;;;;;16.50;15.50;;;;;;;;5068101;28;10398;-79
2023/12/15 06:24:21;;;;;;;;;20.25;19.25;;;;;;;;5064506;28;10513;-77
2023/12/15 06:26:48;;;;;;;;;14.00;13.50;;;;;;;;5067992;28;10655;-76
2023/12/15 06:29:15;;;;;;;;;21.75;21.75;;;;;;;;5068210;28;11140;-78
2023/12/15 06:31:49;;;;;;;;;18.00;16.25;;;;;;;;5067986;28;11285;-78
2023/12/15 06:34:18;;;;;;;;;22.50;21.00;;;;;;;;5068789;28;10625;-78
2023/12/15 06:36:46;;;;;;;;;24.50;19.75;;;;;;;;5069287;28;10718;-76
2023/12/15 06:39:16;;;;;;;;;21.00;19.50;;;;;;;;5056760;28;10559;-78
2023/12/15 06:41:46;;;;;;;;;22.00;21.25;;;;;;;;5068949;28;10514;-73
2023/12/15 06:44:16;;;;;;;;;23.75;23.00;;;;;;;;5069581;28;10513;-78
2023/12/15 06:46:44;;;;;;;;;25.50;22.50;;;;;;;;5064865;28;10679;-79
2023/12/15 06:49:11;;;;;;;;;24.50;23.50;;;;;;;;5074520;28;10693;-75
2023/12/15 06:51:41;;;;;;;;;25.00;23.75;;;;;;;;5057873;28;10650;-75
2023/12/15 06:54:09;;;;;;;;;26.75;25.00;;;;;;;;5069806;28;10673;-79
2023/12/15 06:56:38;;;;;;;;;27.00;22.25;;;;;;;;5070767;28;10814;-78
2023/12/15 06:59:05;;;;;;;;;28.75;25.25;;;;;;;;5070080;28;11373;-79
2023/12/15 07:01:33;;;;;;;;;24.00;24.00;;;;;;;;5066449;28;10537;-78
2023/12/15 07:04:00;;;;;;;;;23.75;22.25;;;;;;;;5069552;28;10691;-77
2023/12/15 07:06:27;;;;;;;;;29.50;29.25;;;;;;;;5065847;28;10591;-79
2023/12/15 07:08:56;;;;;;;;;33.75;30.00;;;;;;;;5076594;28;12190;-77
2023/12/15 07:11:23;;;;;;;;;29.50;26.75;;;;;;;;5072844;28;10950;-77
2023/12/15 07:13:51;;;;;;;;;28.00;26.00;;;;;;;;5057093;28;10914;-74
2023/12/15 07:16:21;;;;;;;;;29.25;25.00;;;;;;;;5060296;28;10870;-77
2023/12/15 07:18:49;;;;;;;;;24.00;19.00;;;;;;;;5058282;28;10807;-74
2023/12/15 07:21:16;;;;;;;;;27.00;24.50;;;;;;;;5056373;28;10655;-79
2023/12/15 07:23:43;;;;;;;;;28.00;23.00;;;;;;;;5064226;28;10824;-77
2023/12/15 07:26:13;;;;;;;;;21.50;19.25;;;;;;;;5064166;28;10647;-79
2023/12/15 07:28:40;;;;;;;;;27.50;25.75;;;;;;;;5056733;28;10627;-80
2023/12/15 07:31:10;;;;;;;;;35.25;31.00;;;;;;;;5064385;28;10826;-78
2023/12/15 07:33:37;;;;;;;;;26.75;23.75;;;;;;;;5067333;28;10808;-83
2023/12/15 07:36:05;;;;;;;;;23.75;22.50;;;;;;;;5059882;28;10702;-76
2023/12/15 07:38:32;;;;;;;;;26.75;24.50;;;;;;;;5067329;28;10561;-77
2023/12/15 07:40:59;;;;;;;;;31.25;25.00;;;;;;;;5065426;28;10697;-74
2023/12/15 07:43:28;;;;;;;;;26.75;26.25;;;;;;;;5066060;28;10508;-80
2023/12/15 07:45:57;;;;;;;;;27.50;27.50;;;;;;;;5066760;28;11368;-78
2023/12/15 07:48:24;;;;;;;;;26.00;26.00;;;;;;;;5067215;28;11451;-79
2023/12/15 07:50:52;;;;;;;;;34.50;33.00;;;;;;;;5066241;28;11336;-79
2023/12/15 07:53:22;;;;;;;;;35.25;31.25;;;;;;;;5070181;28;10898;-79
2023/12/15 07:55:51;;;;;;;;;33.75;28.25;;;;;;;;5071815;28;10880;-75
2023/12/15 07:58:21;;;;;;;;;32.75;29.25;;;;;;;;5070430;28;10811;-77
2023/12/15 08:00:51;;;;;;;;;27.00;25.25;;;;;;;;5070584;28;10673;-78
2023/12/15 08:03:19;;;;;;;;;28.50;21.50;;;;;;;;5071081;28;10574;-76
2023/12/15 08:05:46;;;;;;;;;22.75;22.75;;;;;;;;5070586;28;10579;-77
2023/12/15 08:08:13;;;;;;;;;25.00;22.00;;;;;;;;5068150;28;10660;-77
2023/12/15 08:10:40;;;;;;;;;32.25;32.25;;;;;;;;5070471;28;10744;-76
2023/12/15 08:13:12;;;;;;;;;33.00;31.00;;;;;;;;5070301;28;11482;-76
2023/12/15 08:15:39;;;;;;;;;27.75;27.25;;;;;;;;5070358;28;11577;-77
2023/12/15 08:18:08;;;;;;;;;28.50;27.75;;;;;;;;5069668;28;11661;-76
2023/12/15 08:20:35;;;;;;;;;29.00;23.50;;;;;;;;5070272;28;12065;-72
2023/12/15 08:23:02;;;;;;;;;31.75;28.00;;;;;;;;5070117;28;10744;-77
2023/12/15 08:25:29;;;;;;;;;32.25;25.25;;;;;;;;5068113;28;11077;-76
2023/12/15 08:27:57;;;;;;;;;43.25;36.75;;;;;;;;5069799;28;10841;-77
2023/12/15 08:30:25;;;;;;;;;40.50;35.50;;;;;;;;5067697;28;11215;-77
2023/12/15 08:32:52;;;;;;;;;31.00;25.75;;;;;;;;5067393;28;11329;-75
2023/12/15 08:35:21;;;;;;;;;32.75;29.25;;;;;;;;5064565;28;10811;-77
2023/12/15 08:37:48;;;;;;;;;34.75;30.25;;;;;;;;5067823;28;10742;-76
2023/12/15 08:40:16;;;;;;;;;35.25;31.75;;;;;;;;5064045;28;10912;-77
2023/12/15 08:42:43;;;;;;;;;29.50;29.50;;;;;;;;5070088;28;10992;-76
2023/12/15 08:45:10;;;;;;;;;33.25;29.00;;;;;;;;5060233;28;10754;-76
2023/12/15 08:47:38;;;;;;;;;37.00;26.75;;;;;;;;5056196;28;10746;-75
2023/12/15 08:50:05;;;;;;;;;32.50;28.00;;;;;;;;5062226;28;10819;-79
2023/12/15 08:52:36;;;;;;;;;46.00;33.75;;;;;;;;5061094;28;10778;-75
2023/12/15 08:55:03;;;;;;;;;25.50;25.50;;;;;;;;5072333;28;10853;-79
2023/12/15 08:57:31;;;;;;;;;31.25;28.50;;;;;;;;5062149;28;10804;-83
2023/12/15 08:59:58;;;;;;;;;31.25;27.00;;;;;;;;5070302;28;11724;-73
2023/12/15 09:02:26;;;;;;;;;29.25;26.50;;;;;;;;5062171;28;10644;-75
2023/12/15 09:04:53;;;;;;;;;27.75;27.75;;;;;;;;5065190;28;10533;-77
2023/12/15 09:07:21;;;;;;;;;27.50;26.25;;;;;;;;5069169;28;10633;-73
2023/12/15 09:09:49;;;;;;;;;28.75;27.25;;;;;;;;5058734;28;11358;-80
2023/12/15 09:12:16;;;;;;;;;27.50;27.25;;;;;;;;5069421;28;10505;-77
2023/12/15 09:14:44;;;;;;;;;27.50;27.50;;;;;;;;5068577;28;10556;-80
2023/12/15 09:17:13;;;;;;;;;21.25;21.25;;;;;;;;5059686;28;10565;-75
2023/12/15 09:19:41;;;;;;;;;23.50;23.25;;;;;;;;5068558;28;10623;-74
2023/12/15 09:22:08;;;;;;;;;29.50;27.75;;;;;;;;5061734;28;10671;-78
2023/12/15 09:24:38;;;;;;;;;28.00;25.25;;;;;;;;5053892;28;10742;-72
2023/12/15 09:27:06;;;;;;;;;28.00;24.75;;;;;;;;5069375;28;11378;-77
2023/12/15 09:29:35;;;;;;;;;24.25;22.25;;;;;;;;5065205;28;10493;-80
2023/12/15 09:32:03;;;;;;;;;30.50;30.00;;;;;;;;5060837;28;10380;-76
2023/12/15 09:34:30;;;;;;;;;28.25;24.50;;;;;;;;5055976;28;10580;-79
2023/12/15 09:36:57;;;;;;;;;36.75;31.50;;;;;;;;5068619;28;11254;-79
2023/12/15 09:39:24;;;;;;;;;30.25;28.75;;;;;;;;5057487;28;10584;-78
2023/12/15 09:41:51;;;;;;;;;30.75;29.25;;;;;;;;5070733;28;10324;-76
2023/12/15 09:44:20;;;;;;;;;28.50;28.00;;;;;;;;5071230;28;10326;-78
2023/12/15 09:46:49;;;;;;;;;33.50;30.50;;;;;;;;5071161;28;10400;-76
2023/12/15 09:49:18;;;;;;;;;29.25;23.50;;;;;;;;5069880;28;10452;-78
2023/12/15 09:51:52;;;;;;;;;29.00;27.50;;;;;;;;5068451;28;10452;-79
2023/12/15 09:54:23;;;;;;;;;27.50;24.00;;;;;;;;5068769;28;10567;-80
2023/12/15 09:56:50;;;;;;;;;27.25;25.25;;;;;;;;5068451;28;11222;-80
2023/12/15 09:59:18;;;;;;;;;20.75;20.75;;;;;;;;5068988;28;10339;-79
2023/12/15 10:01:46;;;;;;;;;24.75;23.25;;;;;;;;5067153;28;9959;-79
2023/12/15 10:04:13;;;;;;;;;27.00;25.00;;;;;;;;5068403;28;10238;-77
2023/12/15 10:06:41;;;;;;;;;32.00;27.75;;;;;;;;5064244;28;10271;-77
2023/12/15 10:09:12;;;;;;;;;26.00;22.75;;;;;;;;5068603;28;10189;-79
2023/12/15 10:11:40;;;;;;;;;27.25;26.00;;;;;;;;5068094;28;9929;-78
2023/12/15 10:14:08;;;;;;;;;22.75;22.25;;;;;;;;5067807;28;10043;-78
2023/12/15 10:16:36;;;;;;;;;26.25;23.50;;;;;;;;5069124;28;9879;-74
2023/12/15 10:19:06;;;;;;;;;29.25;27.00;;;;;;;;5071015;28;9716;-73
2023/12/15 10:21:33;;;;;;;;;26.00;25.25;;;;;;;;5065742;28;10096;-80
2023/12/15 10:24:01;;;;;;;;;27.00;25.50;;;;;;;;5061456;28;10144;-79
2023/12/15 10:26:29;;;;;;;;;23.50;23.50;;;;;;;;5072317;28;9942;-76
2023/12/15 10:28:57;;;;;;;;;33.50;29.50;;;;;;;;5072328;28;10106;-78
2023/12/15 10:31:27;;;;;;;;;38.50;32.50;;;;;;;;5070156;28;10162;-79
2023/12/15 10:33:55;;;;;;;;;33.00;31.50;;;;;;;;5067621;28;10015;-78
2023/12/15 10:36:23;;;;;;;;;38.50;33.25;;;;;;;;5069531;28;10084;-71
2023/12/15 10:38:54;;;;;;;;;28.00;25.25;;;;;;;;5056161;28;10036;-74
2023/12/15 10:41:21;;;;;;;;;32.00;31.00;;;;;;;;5056593;28;9977;-75
2023/12/15 10:43:50;;;;;;;;;27.00;25.50;;;;;;;;5068069;28;10064;-75
2023/12/15 10:46:17;;;;;;;;;28.00;28.00;;;;;;;;5070677;28;9967;-76
2023/12/15 10:48:44;;;;;;;;;27.25;25.50;;;;;;;;5066935;28;9769;-76
2023/12/15 10:51:12;;;;;;;;;27.25;24.75;;;;;;;;5067479;28;9852;-78
2023/12/15 10:53:42;;;;;;;;;30.00;27.75;;;;;;;;5066916;28;9908;-78
2023/12/15 10:56:09;;;;;;;;;29.75;26.75;;;;;;;;5067585;28;10048;-78
2023/12/15 10:58:37;;;;;;;;;23.25;23.25;;;;;;;;5066502;28;9968;-79
2023/12/15 11:01:09;;;;;;;;;29.00;26.00;;;;;;;;5067058;28;9840;-78
2023/12/15 11:03:36;;;;;;;;;28.00;25.75;;;;;;;;5067018;28;10123;-78
2023/12/15 11:06:04;;;;;;;;;27.00;24.75;;;;;;;;5068227;28;10253;-73
2023/12/15 11:08:31;;;;;;;;;31.75;28.50;;;;;;;;5066071;28;10838;-82
2023/12/15 11:11:00;;;;;;;;;24.25;24.25;;;;;;;;5067434;28;10293;-80
2023/12/15 11:13:52;;;;;;;;;25.00;24.25;;;;;;;;5067742;28;9992;-76
2023/12/15 11:16:20;;;;;;;;;28.25;27.00;;;;;;;;5068074;28;10122;-91
2023/12/15 11:18:51;;;;;;;;;24.75;24.75;;;;;;;;5072397;28;10104;-83
2023/12/15 11:21:19;;;;;;;;;25.00;25.00;;;;;;;;5070162;28;10072;-79
2023/12/15 11:23:56;;;;;;;;;17.50;17.50;;;;;;;;5070120;28;9894;-76
2023/12/15 11:26:28;;;;;;;;;25.50;23.50;;;;;;;;5072910;28;9869;-76
2023/12/15 11:29:02;;;;;;;;;25.50;23.00;;;;;;;;5075066;28;9993;-75
2023/12/15 11:31:29;;;;;;;;;28.00;26.00;;;;;;;;5071766;28;10049;-73
2023/12/15 11:33:57;;;;;;;;;29.00;29.00;;;;;;;;5073283;28;9971;-79
2023/12/15 11:36:24;;;;;;;;;28.50;26.00;;;;;;;;5073212;28;10483;-79
2023/12/15 11:38:52;;;;;;;;;19.75;19.75;;;;;;;;5059082;28;9932;-81
2023/12/15 11:41:22;;;;;;;;;23.75;23.50;;;;;;;;5059638;28;10037;-79
2023/12/15 11:43:53;;;;;;;;;21.50;20.25;;;;;;;;5070387;28;9966;-81
2023/12/15 11:46:21;;;;;;;;;27.50;25.75;;;;;;;;5071188;28;9772;-79
2023/12/15 11:48:49;;;;;;;;;26.25;24.25;;;;;;;;5070425;28;10382;-81
2023/12/15 11:51:17;;;;;;;;;30.50;26.50;;;;;;;;5071064;28;9830;-76
2023/12/15 11:53:49;;;;;;;;;24.25;20.25;;;;;;;;5069885;28;10700;-78
2023/12/15 11:56:17;;;;;;;;;20.75;20.75;;;;;;;;5071922;28;9892;-78
2023/12/15 11:58:45;;;;;;;;;23.75;23.50;;;;;;;;5070942;28;9915;-77
2023/12/15 12:01:15;;;;;;;;;26.25;23.75;;;;;;;;5071006;28;9541;-78
2023/12/15 12:03:43;;;;;;;;;21.25;21.25;;;;;;;;5071018;28;10377;-74
2023/12/15 12:06:10;;;;;;;;;21.67;20.67;;;;;;;;5070466;28;9649;-80
2023/12/15 12:08:39;;;;;;;;;24.67;23.33;;;;;;;;5071917;28;9402;-77
2023/12/15 12:11:06;;;;;;;;;22.00;22.00;;;;;;;;5072184;28;9608;-74
2023/12/15 12:13:35;;;;;;;;;22.00;21.67;;;;;;;;5068006;28;9408;-76
2023/12/15 12:16:03;;;;;;;;;19.00;19.00;;;;;;;;5062104;28;9331;-74
2023/12/15 12:18:32;;;;;;;;;34.50;27.25;;;;;;;;5065915;28;9475;-76
2023/12/15 12:21:03;;;;;;;;;24.50;23.00;;;;;;;;5067030;28;9610;-75
2023/12/15 12:23:31;;;;;;;;;26.25;22.75;;;;;;;;5062202;28;9456;-74
2023/12/15 12:26:00;;;;;;;;;25.50;22.25;;;;;;;;5070086;28;9530;-74
2023/12/15 12:28:37;;;;;;;;;14.75;14.75;;;;;;;;5071168;28;9582;-78
2023/12/15 12:31:07;;;;;;;;;25.75;22.75;;;;;;;;5069785;28;9404;-74
2023/12/15 12:33:36;;;;;;;;;24.25;23.25;;;;;;;;5072185;28;9544;-73
2023/12/15 12:36:04;;;;;;;;;21.67;20.67;;;;;;;;5071495;28;9481;-78
2023/12/15 12:38:31;;;;;;;;;25.33;24.00;;;;;;;;5059366;28;9325;-83
2023/12/15 12:41:02;;;;;;;;;21.67;21.67;;;;;;;;5066372;28;9351;-74
2023/12/15 12:43:30;;;;;;;;;26.33;21.33;;;;;;;;5068343;28;9283;-74
2023/12/15 12:45:57;;;;;;;;;22.00;18.67;;;;;;;;5067775;28;9296;-74
2023/12/15 12:48:24;;;;;;;;;21.33;20.00;;;;;;;;5070339;28;9187;-74
2023/12/15 12:50:53;;;;;;;;;22.33;21.00;;;;;;;;5068941;28;9219;-75
2023/12/15 12:53:20;;;;;;;;;21.67;20.67;;;;;;;;5071820;28;9163;-77
2023/12/15 12:55:52;;;;;;;;;25.00;23.67;;;;;;;;5068983;28;9699;-78
2023/12/15 12:58:19;;;;;;;;;19.33;19.33;;;;;;;;5068657;28;9178;-80
2023/12/15 13:00:47;;;;;;;;;17.33;17.33;;;;;;;;5058305;28;9134;-78
2023/12/15 13:03:14;;;;;;;;;22.67;20.33;;;;;;;;5069524;28;9226;-77
2023/12/15 13:05:41;;;;;;;;;22.00;20.33;;;;;;;;5069653;28;9176;-76
2023/12/15 13:08:10;;;;;;;;;20.67;18.00;;;;;;;;5069124;28;9255;-72
2023/12/15 13:10:37;;;;;;;;;23.67;21.67;;;;;;;;5069388;28;9089;-76
2023/12/15 13:13:04;;;;;;;;;21.00;20.67;;;;;;;;5069085;28;9497;-78
2023/12/15 13:15:32;;;;;;;;;25.33;23.33;;;;;;;;5070089;28;9249;-77
2023/12/15 13:17:59;;;;;;;;;23.33;22.33;;;;;;;;5070220;28;9302;-76
2023/12/15 13:20:26;;;;;;;;;23.00;23.00;;;;;;;;5071306;28;9250;-75
2023/12/15 13:23:01;;;;;;;;;23.00;20.67;;;;;;;;5070802;28;9321;-76
2023/12/15 13:25:29;;;;;;;;;22.67;16.67;;;;;;;;5069550;28;9248;-80
2023/12/15 13:27:57;;;;;;;;;22.67;21.67;;;;;;;;5067448;28;9251;-77
2023/12/15 13:30:24;;;;;;;;;25.67;21.33;;;;;;;;5067936;28;9129;-77
2023/12/15 13:32:57;;;;;;;;;16.33;16.33;;;;;;;;5068732;28;9298;-80
2023/12/15 13:35:24;;;;;;;;;22.67;22.67;;;;;;;;5069500;28;9069;-78
2023/12/15 13:37:52;;;;;;;;;18.33;18.33;;;;;;;;5061299;28;9080;-78
2023/12/15 13:40:19;;;;;;;;;19.33;18.33;;;;;;;;5060538;28;9187;-78
2023/12/15 13:42:47;;;;;;;;;24.00;20.33;;;;;;;;5068551;28;9177;-76
2023/12/15 13:45:15;;;;;;;;;17.67;16.67;;;;;;;;5068963;28;9070;-77
2023/12/15 13:47:42;;;;;;;;;26.00;19.67;;;;;;;;5069029;28;9011;-77
2023/12/15 13:50:10;;;;;;;;;26.67;21.00;;;;;;;;5069094;28;9248;-79
2023/12/15 13:52:37;;;;;;;;;19.00;19.00;;;;;;;;5069205;28;9175;-77
2023/12/15 13:55:06;;;;;;;;;21.67;20.00;;;;;;;;5069179;28;9085;-77
2023/12/15 13:57:36;;;;;;;;;23.00;21.33;;;;;;;;5070994;28;9236;-77
2023/12/15 14:00:08;;;;;;;;;21.00;19.33;;;;;;;;5071820;28;9097;-77
2023/12/15 14:02:38;;;;;;;;;20.00;18.00;;;;;;;;5067935;28;9088;-74
2023/12/15 14:05:06;;;;;;;;;20.67;19.67;;;;;;;;5066639;28;9073;-78
2023/12/15 14:07:33;;;;;;;;;19.33;19.33;;;;;;;;5061811;28;9099;-77
2023/12/15 14:10:02;;;;;;;;;15.75;15.75;;;;;;;;5060574;28;9011;-78
2023/12/15 14:12:30;;;;;;;;;28.00;23.00;;;;;;;;5063992;28;8845;-73
2023/12/15 14:15:00;;;;;;;;;23.67;18.67;;;;;;;;5070248;28;9081;-74
2023/12/15 14:17:40;;;;;;;;;24.00;20.00;;;;;;;;5062053;28;9033;-75
2023/12/15 14:20:09;;;;;;;;;20.00;19.33;;;;;;;;5068614;28;8962;-75
2023/12/15 14:22:36;;;;;;;;;20.00;20.00;;;;;;;;5060451;28;9066;-75
2023/12/15 14:25:06;;;;;;;;;28.33;25.00;;;;;;;;5069255;28;9057;-74
2023/12/15 14:27:41;;;;;;;;;25.33;21.67;;;;;;;;5060216;28;9036;-75